createdAt,value
2022-12-15T00:00:11.072Z,1000.62
2022-12-15T00:01:14.168Z,1000.66
2022-12-15T00:02:14.394Z,1000.67
2022-12-15T00:03:13.027Z,1000.68
2022-12-15T00:04:13.118Z,1000.66
2022-12-15T00:05:13.529Z,1000.66
2022-12-15T00:06:13.747Z,1000.59
2022-12-15T00:07:15.099Z,1000.55
2022-12-15T00:08:14.266Z,1000.55
2022-12-15T00:09:14.633Z,1000.62
2022-12-15T00:10:14.014Z,1000.60
2022-12-15T00:11:14.345Z,1000.53
2022-12-15T00:12:16.530Z,1000.44
2022-12-15T00:13:15.833Z,1000.37
2022-12-15T00:14:16.256Z,1000.40
2022-12-15T00:15:16.408Z,1000.36
2022-12-15T00:16:16.632Z,1000.34
2022-12-15T00:17:17.967Z,1000.34
2022-12-15T00:18:17.146Z,1000.34
2022-12-15T00:19:18.546Z,1000.30
2022-12-15T00:20:17.721Z,1000.28
2022-12-15T00:21:18.138Z,1000.25
2022-12-15T00:22:19.497Z,1000.31
2022-12-15T00:23:18.713Z,1000.31
2022-12-15T00:24:19.039Z,1000.36
2022-12-15T00:25:19.289Z,1000.37
2022-12-15T00:26:18.668Z,1000.41
2022-12-15T00:27:18.973Z,1000.40
2022-12-15T00:28:21.174Z,1000.41
2022-12-15T00:29:19.553Z,1000.34
2022-12-15T00:30:21.746Z,1000.33
2022-12-15T00:31:22.021Z,1000.30
2022-12-15T00:32:20.394Z,1000.32
2022-12-15T00:33:22.572Z,1000.34
2022-12-15T00:34:22.737Z,1000.38
2022-12-15T00:35:22.923Z,1000.37
2022-12-15T00:36:23.094Z,1000.44
2022-12-15T00:37:23.762Z,1000.52
2022-12-15T00:38:23.951Z,1000.49
2022-12-15T00:39:22.436Z,1000.53
2022-12-15T00:40:22.748Z,1000.50
2022-12-15T00:41:23.067Z,1000.51
2022-12-15T00:42:24.255Z,1000.46
2022-12-15T00:43:23.629Z,1000.39
2022-12-15T00:44:23.958Z,1000.38
2022-12-15T00:45:24.264Z,1000.40
2022-12-15T00:46:26.523Z,1000.39
2022-12-15T00:47:26.569Z,1000.35
2022-12-15T00:48:26.744Z,1000.37
2022-12-15T00:49:27.459Z,1000.35
2022-12-15T00:50:27.636Z,1000.31
2022-12-15T00:51:27.814Z,1000.30
2022-12-15T00:52:28.182Z,1000.26
2022-12-15T00:53:26.816Z,1000.28
2022-12-15T00:54:28.877Z,1000.25
2022-12-15T00:55:29.067Z,1000.28
2022-12-15T00:56:29.268Z,1000.30
2022-12-15T00:57:29.448Z,1000.29
2022-12-15T00:58:28.202Z,1000.30
2022-12-15T00:59:30.424Z,1000.31
2022-12-15T01:00:28.825Z,1000.31
2022-12-15T01:01:31.085Z,1000.33
2022-12-15T01:02:31.299Z,1000.34
2022-12-15T01:03:30.336Z,1000.32
2022-12-15T01:04:29.961Z,1000.33
2022-12-15T01:05:30.277Z,1000.34
2022-12-15T01:06:30.587Z,1000.35
2022-12-15T01:07:32.774Z,1000.34
2022-12-15T01:08:31.146Z,1000.35
2022-12-15T01:09:33.340Z,1000.36
2022-12-15T01:10:31.742Z,1000.31
2022-12-15T01:11:32.043Z,1000.32
2022-12-15T01:12:32.353Z,1000.31
2022-12-15T01:13:33.242Z,1000.37
2022-12-15T01:14:34.868Z,1000.37
2022-12-15T01:15:33.256Z,1000.43
2022-12-15T01:16:33.647Z,1000.41
2022-12-15T01:17:33.785Z,1000.40
2022-12-15T01:18:34.104Z,1000.45
2022-12-15T01:19:36.284Z,1000.44
2022-12-15T01:20:34.793Z,1000.46
2022-12-15T01:21:35.891Z,1000.49
2022-12-15T01:22:37.106Z,1000.53
2022-12-15T01:23:35.564Z,1000.55
2022-12-15T01:24:37.674Z,1000.55
2022-12-15T01:25:36.063Z,1000.60
2022-12-15T01:26:36.377Z,1000.59
2022-12-15T01:27:36.685Z,1000.62
2022-12-15T01:28:36.997Z,1000.60
2022-12-15T01:29:39.183Z,1000.57
2022-12-15T01:30:37.575Z,1000.56
2022-12-15T01:31:37.919Z,1000.58
2022-12-15T01:32:42.719Z,1000.55
2022-12-15T01:33:39.442Z,1000.54
2022-12-15T01:34:40.639Z,1000.54
2022-12-15T01:35:39.028Z,1000.56
2022-12-15T01:36:39.346Z,1000.58
2022-12-15T01:37:39.654Z,1000.48
2022-12-15T01:38:39.972Z,1000.48
2022-12-15T01:39:40.316Z,1000.43
2022-12-15T01:40:40.513Z,1000.42
2022-12-15T01:41:40.816Z,1000.46
2022-12-15T01:42:41.127Z,1000.43
2022-12-15T01:43:41.431Z,1000.42
2022-12-15T01:44:43.619Z,1000.51
2022-12-15T01:45:42.005Z,1000.43
2022-12-15T01:46:42.361Z,1000.45
2022-12-15T01:47:44.492Z,1000.48
2022-12-15T01:48:42.927Z,1000.47
2022-12-15T01:49:43.220Z,1000.50
2022-12-15T01:50:45.401Z,1000.50
2022-12-15T01:51:44.801Z,1000.50
2022-12-15T01:52:44.030Z,1000.49
2022-12-15T01:53:46.222Z,1000.47
2022-12-15T01:54:44.619Z,1000.53
2022-12-15T01:55:44.841Z,1000.60
2022-12-15T01:56:45.187Z,1000.54
2022-12-15T01:57:46.302Z,1000.58
2022-12-15T01:58:47.688Z,1000.58
2022-12-15T01:59:46.079Z,1000.59
2022-12-15T02:00:46.435Z,1000.60
2022-12-15T02:01:49.862Z,1000.63
2022-12-15T02:02:47.991Z,1000.64
2022-12-15T02:03:49.145Z,1000.62
2022-12-15T02:04:48.458Z,1000.60
2022-12-15T02:05:49.711Z,1000.58
2022-12-15T02:06:49.021Z,1000.62
2022-12-15T02:07:49.176Z,1000.63
2022-12-15T02:08:49.567Z,1000.63
2022-12-15T02:09:50.783Z,1000.61
2022-12-15T02:10:50.978Z,1000.61
2022-12-15T02:11:50.329Z,1000.61
2022-12-15T02:12:49.868Z,1000.56
2022-12-15T02:13:51.131Z,1000.57
2022-12-15T02:14:51.323Z,1000.57
2022-12-15T02:15:52.740Z,1000.57
2022-12-15T02:16:51.084Z,1000.61
2022-12-15T02:17:51.393Z,1000.66
2022-12-15T02:18:52.658Z,1000.58
2022-12-15T02:19:53.885Z,1000.64
2022-12-15T02:20:54.828Z,1000.64
2022-12-15T02:21:52.588Z,1000.63
2022-12-15T02:22:52.900Z,1000.67
2022-12-15T02:23:53.209Z,1000.71
2022-12-15T02:24:54.408Z,1000.70
2022-12-15T02:25:54.610Z,1000.70
2022-12-15T02:26:54.115Z,1000.70
2022-12-15T02:27:56.279Z,1000.70
2022-12-15T02:28:56.470Z,1000.72
2022-12-15T02:29:56.658Z,1000.71
2022-12-15T02:30:56.847Z,1000.67
2022-12-15T02:31:55.691Z,1000.68
2022-12-15T02:32:57.787Z,1000.65
2022-12-15T02:33:57.977Z,1000.68
2022-12-15T02:34:58.168Z,1000.67
2022-12-15T02:35:58.357Z,1000.70
2022-12-15T02:36:59.047Z,1000.62
2022-12-15T02:37:59.244Z,1000.68
2022-12-15T02:38:59.447Z,1000.63
2022-12-15T02:39:58.079Z,1000.68
2022-12-15T02:40:58.488Z,1000.70
2022-12-15T02:42:00.569Z,1000.72
2022-12-15T02:42:58.945Z,1000.73
2022-12-15T02:44:01.147Z,1000.74
2022-12-15T02:44:59.540Z,1000.73
2022-12-15T02:45:59.903Z,1000.71
2022-12-15T02:47:02.036Z,1000.73
2022-12-15T02:48:00.444Z,1000.82
2022-12-15T02:49:00.753Z,1000.80
2022-12-15T02:50:01.074Z,1000.80
2022-12-15T02:51:01.373Z,1000.85
2022-12-15T02:52:03.652Z,1000.82
2022-12-15T02:53:01.921Z,1000.89
2022-12-15T02:54:04.109Z,1000.92
2022-12-15T02:55:04.313Z,1000.90
2022-12-15T02:56:02.829Z,1000.95
2022-12-15T02:57:03.139Z,1000.93
2022-12-15T02:58:03.463Z,1000.95
2022-12-15T02:59:05.645Z,1000.96
2022-12-15T03:00:05.853Z,1000.93
2022-12-15T03:01:06.060Z,1000.88
2022-12-15T03:02:04.870Z,1000.90
2022-12-15T03:03:05.049Z,1000.92
2022-12-15T03:04:05.281Z,1000.92
2022-12-15T03:05:05.607Z,1000.98
2022-12-15T03:06:07.809Z,1000.98
2022-12-15T03:07:06.198Z,1000.98
2022-12-15T03:08:06.509Z,1001.02
2022-12-15T03:09:06.820Z,1001.00
2022-12-15T03:10:09.009Z,1001.02
2022-12-15T03:11:07.389Z,1001.05
2022-12-15T03:12:07.727Z,1001.06
2022-12-15T03:13:08.073Z,1001.04
2022-12-15T03:14:08.356Z,1001.06
2022-12-15T03:15:10.545Z,1001.06
2022-12-15T03:16:10.777Z,1001.07
2022-12-15T03:17:09.278Z,1001.05
2022-12-15T03:18:11.470Z,1001.07
2022-12-15T03:19:09.857Z,1001.06
2022-12-15T03:20:12.052Z,1001.03
2022-12-15T03:21:10.449Z,1001.04
2022-12-15T03:22:10.754Z,1001.03
2022-12-15T03:23:12.935Z,1001.03
2022-12-15T03:24:13.098Z,1001.04
2022-12-15T03:25:11.631Z,1000.99
2022-12-15T03:26:13.815Z,1000.96
2022-12-15T03:27:12.191Z,1000.97
2022-12-15T03:28:12.516Z,1000.97
2022-12-15T03:29:12.819Z,1000.98
2022-12-15T03:30:13.139Z,1000.97
2022-12-15T03:31:15.379Z,1000.95
2022-12-15T03:32:13.842Z,1001.01
2022-12-15T03:33:14.064Z,1001.02
2022-12-15T03:34:14.380Z,1000.98
2022-12-15T03:35:14.688Z,1001.00
2022-12-15T03:36:16.872Z,1000.99
2022-12-15T03:37:15.248Z,1000.98
2022-12-15T03:38:15.561Z,1000.96
2022-12-15T03:39:15.870Z,1000.94
2022-12-15T03:40:16.209Z,1000.91
2022-12-15T03:41:18.399Z,1000.96
2022-12-15T03:42:16.656Z,1000.99
2022-12-15T03:43:16.980Z,1000.97
2022-12-15T03:44:19.146Z,1001.02
2022-12-15T03:45:19.318Z,1001.03
2022-12-15T03:46:20.540Z,1001.02
2022-12-15T03:47:19.686Z,1001.01
2022-12-15T03:48:19.264Z,1001.06
2022-12-15T03:49:19.678Z,1001.11
2022-12-15T03:50:19.836Z,1001.14
2022-12-15T03:51:21.305Z,1001.16
2022-12-15T03:52:22.012Z,1001.20
2022-12-15T03:53:21.748Z,1001.19
2022-12-15T03:54:20.981Z,1001.19
2022-12-15T03:55:22.192Z,1001.16
2022-12-15T03:56:22.390Z,1001.19
2022-12-15T03:57:21.722Z,1001.20
2022-12-15T03:58:22.140Z,1001.17
2022-12-15T03:59:23.401Z,1001.19
2022-12-15T04:00:23.595Z,1001.14
2022-12-15T04:01:23.141Z,1001.13
2022-12-15T04:02:22.544Z,1001.09
2022-12-15T04:03:24.668Z,1001.10
2022-12-15T04:04:22.936Z,1001.09
2022-12-15T04:05:23.248Z,1001.13
2022-12-15T04:06:23.543Z,1001.14
2022-12-15T04:07:25.708Z,1001.17
2022-12-15T04:08:24.911Z,1001.18
2022-12-15T04:09:26.112Z,1001.15
2022-12-15T04:10:28.696Z,1001.19
2022-12-15T04:11:26.081Z,1001.20
2022-12-15T04:12:25.331Z,1001.20
2022-12-15T04:13:25.623Z,1001.15
2022-12-15T04:14:27.816Z,1001.17
2022-12-15T04:15:26.196Z,1001.18
2022-12-15T04:16:28.439Z,1001.17
2022-12-15T04:17:26.812Z,1001.18
2022-12-15T04:18:28.991Z,1001.25
2022-12-15T04:19:27.383Z,1001.23
2022-12-15T04:20:27.700Z,1001.23
2022-12-15T04:21:28.001Z,1001.21
2022-12-15T04:22:30.193Z,1001.22
2022-12-15T04:23:30.693Z,1001.29
2022-12-15T04:24:28.828Z,1001.28
2022-12-15T04:25:29.207Z,1001.29
2022-12-15T04:26:29.460Z,1001.31
2022-12-15T04:27:29.769Z,1001.30
2022-12-15T04:28:31.950Z,1001.34
2022-12-15T04:29:32.144Z,1001.32
2022-12-15T04:30:32.377Z,1001.32
2022-12-15T04:31:32.604Z,1001.29
2022-12-15T04:32:33.200Z,1001.30
2022-12-15T04:33:33.793Z,1001.34
2022-12-15T04:34:33.590Z,1001.36
2022-12-15T04:35:33.781Z,1001.36
2022-12-15T04:36:34.489Z,1001.34
2022-12-15T04:37:32.870Z,1001.35
2022-12-15T04:38:35.089Z,1001.37
2022-12-15T04:39:35.349Z,1001.34
2022-12-15T04:40:34.190Z,1001.39
2022-12-15T04:41:35.919Z,1001.36
2022-12-15T04:42:34.306Z,1001.39
2022-12-15T04:43:36.495Z,1001.37
2022-12-15T04:44:36.677Z,1001.38
2022-12-15T04:45:36.858Z,1001.37
2022-12-15T04:46:35.523Z,1001.38
2022-12-15T04:47:35.792Z,1001.36
2022-12-15T04:48:36.103Z,1001.40
2022-12-15T04:49:36.408Z,1001.38
2022-12-15T04:50:38.610Z,1001.45
2022-12-15T04:51:36.986Z,1001.47
2022-12-15T04:52:37.280Z,1001.45
2022-12-15T04:53:37.585Z,1001.47
2022-12-15T04:54:39.770Z,1001.48
2022-12-15T04:55:39.931Z,1001.43
2022-12-15T04:56:38.486Z,1001.44
2022-12-15T04:57:38.666Z,1001.50
2022-12-15T04:58:39.002Z,1001.47
2022-12-15T04:59:39.307Z,1001.45
2022-12-15T05:00:41.503Z,1001.47
2022-12-15T05:01:40.001Z,1001.46
2022-12-15T05:02:42.134Z,1001.44
2022-12-15T05:03:40.498Z,1001.46
2022-12-15T05:04:40.871Z,1001.42
2022-12-15T05:05:41.126Z,1001.42
2022-12-15T05:06:43.324Z,1001.42
2022-12-15T05:07:43.502Z,1001.42
2022-12-15T05:08:42.003Z,1001.47
2022-12-15T05:09:42.320Z,1001.48
2022-12-15T05:10:42.662Z,1001.48
2022-12-15T05:11:42.935Z,1001.46
2022-12-15T05:12:45.135Z,1001.49
2022-12-15T05:13:45.322Z,1001.49
2022-12-15T05:14:43.831Z,1001.53
2022-12-15T05:15:44.201Z,1001.58
2022-12-15T05:16:44.476Z,1001.58
2022-12-15T05:17:46.652Z,1001.63
2022-12-15T05:18:45.150Z,1001.60
2022-12-15T05:19:47.313Z,1001.65
2022-12-15T05:20:45.705Z,1001.62
2022-12-15T05:21:46.010Z,1001.60
2022-12-15T05:22:48.208Z,1001.63
2022-12-15T05:23:46.612Z,1001.60
2022-12-15T05:24:46.925Z,1001.59
2022-12-15T05:25:47.229Z,1001.59
2022-12-15T05:26:52.320Z,1001.58
2022-12-15T05:27:51.675Z,1001.60
2022-12-15T05:28:50.871Z,1001.64
2022-12-15T05:29:48.518Z,1001.59
2022-12-15T05:30:49.496Z,1001.63
2022-12-15T05:31:50.073Z,1001.64
2022-12-15T05:32:50.234Z,1001.63
2022-12-15T05:33:50.665Z,1001.67
2022-12-15T05:34:52.791Z,1001.64
2022-12-15T05:35:51.185Z,1001.69
2022-12-15T05:36:51.394Z,1001.70
2022-12-15T05:37:51.555Z,1001.74
2022-12-15T05:38:51.961Z,1001.73
2022-12-15T05:39:53.320Z,1001.77
2022-12-15T05:40:51.586Z,1001.79
2022-12-15T05:41:51.897Z,1001.79
2022-12-15T05:42:55.011Z,1001.82
2022-12-15T05:43:52.524Z,1001.86
2022-12-15T05:44:55.661Z,1001.83
2022-12-15T05:45:53.906Z,1001.82
2022-12-15T05:46:54.320Z,1001.85
2022-12-15T05:47:54.684Z,1001.84
2022-12-15T05:48:54.846Z,1001.87
2022-12-15T05:49:56.120Z,1001.87
2022-12-15T05:50:55.419Z,1001.88
2022-12-15T05:51:55.581Z,1001.89
2022-12-15T05:52:55.996Z,1001.93
2022-12-15T05:53:57.262Z,1001.92
2022-12-15T05:54:57.453Z,1001.90
2022-12-15T05:55:55.966Z,1001.92
2022-12-15T05:56:58.155Z,1001.91
2022-12-15T05:57:56.538Z,1001.94
2022-12-15T05:58:58.742Z,1001.91
2022-12-15T05:59:58.911Z,1001.93
2022-12-15T06:00:57.433Z,1001.97
2022-12-15T06:01:57.740Z,1001.96
2022-12-15T06:02:59.995Z,1001.95
2022-12-15T06:04:00.120Z,1002.01
2022-12-15T06:04:58.692Z,1001.99
2022-12-15T06:06:00.812Z,1002.04
2022-12-15T06:07:01.005Z,1002.02
2022-12-15T06:08:01.196Z,1002.04
2022-12-15T06:08:59.831Z,1002.04
2022-12-15T06:10:00.138Z,1002.03
2022-12-15T06:11:03.082Z,1002.06
2022-12-15T06:12:02.269Z,1002.04
2022-12-15T06:13:01.031Z,1002.05
2022-12-15T06:14:03.214Z,1002.13
2022-12-15T06:15:03.401Z,1002.23
2022-12-15T06:16:03.670Z,1002.28
2022-12-15T06:17:03.787Z,1002.31
2022-12-15T06:18:03.940Z,1002.31
2022-12-15T06:19:04.641Z,1002.34
2022-12-15T06:20:04.834Z,1002.30
2022-12-15T06:21:05.029Z,1002.30
2022-12-15T06:22:05.230Z,1002.29
2022-12-15T06:23:03.986Z,1002.33
2022-12-15T06:24:06.178Z,1002.36
2022-12-15T06:25:06.425Z,1002.38
2022-12-15T06:26:06.630Z,1002.39
2022-12-15T06:27:06.804Z,1002.39
2022-12-15T06:28:05.980Z,1002.39
2022-12-15T06:29:07.676Z,1002.41
2022-12-15T06:30:06.062Z,1002.35
2022-12-15T06:31:08.298Z,1002.38
2022-12-15T06:32:06.627Z,1002.37
2022-12-15T06:33:06.942Z,1002.38
2022-12-15T06:34:07.279Z,1002.35
2022-12-15T06:35:07.602Z,1002.34
2022-12-15T06:36:09.811Z,1002.41
2022-12-15T06:37:08.199Z,1002.44
2022-12-15T06:38:08.523Z,1002.44
2022-12-15T06:39:10.718Z,1002.43
2022-12-15T06:40:09.107Z,1002.46
2022-12-15T06:41:11.305Z,1002.45
2022-12-15T06:42:09.719Z,1002.49
2022-12-15T06:43:11.935Z,1002.47
2022-12-15T06:44:10.320Z,1002.47
2022-12-15T06:45:12.488Z,1002.42
2022-12-15T06:46:12.695Z,1002.41
2022-12-15T06:47:11.230Z,1002.46
2022-12-15T06:48:13.392Z,1002.40
2022-12-15T06:49:11.778Z,1002.42
2022-12-15T06:50:12.085Z,1002.45
2022-12-15T06:51:16.843Z,1002.50
2022-12-15T06:52:15.568Z,1002.54
2022-12-15T06:53:14.834Z,1002.55
2022-12-15T06:54:13.229Z,1002.55
2022-12-15T06:55:13.539Z,1002.52
2022-12-15T06:56:15.182Z,1002.52
2022-12-15T06:57:14.169Z,1002.56
2022-12-15T06:58:16.358Z,1002.57
2022-12-15T06:59:14.744Z,1002.56
2022-12-15T07:00:16.933Z,1002.57
2022-12-15T07:01:15.466Z,1002.57
2022-12-15T07:02:19.244Z,1002.58
2022-12-15T07:03:16.156Z,1002.57
2022-12-15T07:04:16.356Z,1002.59
2022-12-15T07:05:18.407Z,1002.61
2022-12-15T07:06:16.801Z,1002.63
2022-12-15T07:07:18.953Z,1002.58
2022-12-15T07:08:17.457Z,1002.60
2022-12-15T07:09:17.775Z,1002.60
2022-12-15T07:10:19.984Z,1002.57
2022-12-15T07:11:18.359Z,1002.60
2022-12-15T07:12:18.686Z,1002.58
2022-12-15T07:13:18.987Z,1002.62
2022-12-15T07:14:19.334Z,1002.60
2022-12-15T07:15:21.516Z,1002.58
2022-12-15T07:16:20.053Z,1002.58
2022-12-15T07:17:20.215Z,1002.59
2022-12-15T07:18:22.372Z,1002.61
2022-12-15T07:19:22.565Z,1002.60
2022-12-15T07:20:27.020Z,1002.62
2022-12-15T07:21:22.429Z,1002.62
2022-12-15T07:22:23.619Z,1002.60
2022-12-15T07:23:39.708Z,1002.65
2022-12-15T07:24:24.383Z,1002.65
2022-12-15T07:25:22.656Z,1002.65
2022-12-15T07:26:25.837Z,1002.61
2022-12-15T07:27:26.000Z,1002.62
2022-12-15T07:28:27.351Z,1002.62
2022-12-15T07:29:24.802Z,1002.60
2022-12-15T07:30:25.080Z,1002.64
2022-12-15T07:31:25.494Z,1002.63
2022-12-15T07:32:25.661Z,1002.65
2022-12-15T07:33:26.895Z,1002.74
2022-12-15T07:34:26.240Z,1002.68
2022-12-15T07:35:27.480Z,1002.72
2022-12-15T07:36:26.810Z,1002.70
2022-12-15T07:37:26.198Z,1002.74
2022-12-15T07:38:26.534Z,1002.76
2022-12-15T07:39:28.714Z,1002.73
2022-12-15T07:40:27.964Z,1002.76
2022-12-15T07:41:27.347Z,1002.79
2022-12-15T07:42:27.681Z,1002.83
2022-12-15T07:43:31.459Z,1002.89
2022-12-15T07:44:29.127Z,1002.89
2022-12-15T07:45:29.595Z,1002.92
2022-12-15T07:46:29.211Z,1002.95
2022-12-15T07:47:30.104Z,1002.98
2022-12-15T07:48:31.488Z,1003.00
2022-12-15T07:49:30.686Z,1003.04
2022-12-15T07:50:30.281Z,1003.06
2022-12-15T07:51:31.453Z,1003.09
2022-12-15T07:52:33.659Z,1003.09
2022-12-15T07:53:33.329Z,1003.10
2022-12-15T07:54:33.050Z,1003.14
2022-12-15T07:55:57.233Z,1003.10
2022-12-15T07:56:38.858Z,1003.10
2022-12-15T07:57:34.109Z,1003.11
2022-12-15T07:58:33.313Z,1003.14
2022-12-15T07:59:33.482Z,1003.15
2022-12-15T08:00:33.131Z,1003.18
2022-12-15T08:01:35.435Z,1003.19
2022-12-15T08:02:35.643Z,1003.20
2022-12-15T08:03:36.406Z,1003.26
2022-12-15T08:04:34.266Z,1003.23
2022-12-15T08:05:36.430Z,1003.18
2022-12-15T08:06:34.721Z,1003.23
2022-12-15T08:07:35.061Z,1003.24
2022-12-15T08:08:37.310Z,1003.24
2022-12-15T08:09:35.634Z,1003.23
2022-12-15T08:10:37.829Z,1003.25
2022-12-15T08:11:36.233Z,1003.24
2022-12-15T08:12:38.433Z,1003.26
2022-12-15T08:14:01.871Z,1003.31
2022-12-15T08:14:38.169Z,1003.29
2022-12-15T08:15:39.477Z,1003.32
2022-12-15T08:16:39.688Z,1003.33
2022-12-15T08:17:38.079Z,1003.32
2022-12-15T08:18:40.284Z,1003.33
2022-12-15T08:19:38.689Z,1003.35
2022-12-15T08:20:40.881Z,1003.39
2022-12-15T08:21:39.288Z,1003.43
2022-12-15T08:22:41.448Z,1003.47
2022-12-15T08:23:41.631Z,1003.43
2022-12-15T08:24:40.164Z,1003.44
2022-12-15T08:25:42.345Z,1003.45
2022-12-15T08:26:41.722Z,1003.48
2022-12-15T08:27:41.000Z,1003.48
2022-12-15T08:28:41.358Z,1003.50
2022-12-15T08:29:52.111Z,1003.50
2022-12-15T08:30:42.970Z,1003.51
2022-12-15T08:31:43.344Z,1003.48
2022-12-15T08:32:45.044Z,1003.49
2022-12-15T08:33:43.721Z,1003.48
2022-12-15T08:34:44.901Z,1003.48
2022-12-15T08:35:56.421Z,1003.44
2022-12-15T08:36:46.475Z,1003.48
2022-12-15T08:37:43.900Z,1003.51
2022-12-15T08:38:44.267Z,1003.50
2022-12-15T08:39:46.443Z,1003.58
2022-12-15T08:40:44.735Z,1003.55
2022-12-15T08:41:46.072Z,1003.54
2022-12-15T08:42:45.354Z,1003.56
2022-12-15T08:43:48.571Z,1003.58
2022-12-15T08:44:47.852Z,1003.56
2022-12-15T08:45:46.344Z,1003.59
2022-12-15T08:46:46.552Z,1003.59
2022-12-15T08:47:48.757Z,1003.62
2022-12-15T08:48:47.246Z,1003.64
2022-12-15T08:49:49.360Z,1003.64
2022-12-15T08:50:47.775Z,1003.69
2022-12-15T08:51:49.950Z,1003.68
2022-12-15T08:53:13.880Z,1003.70
2022-12-15T08:53:49.934Z,1003.70
2022-12-15T08:54:49.172Z,1003.73
2022-12-15T08:55:49.224Z,1003.70
2022-12-15T08:56:51.414Z,1003.69
2022-12-15T08:57:49.829Z,1003.71
2022-12-15T08:58:52.023Z,1003.67
2022-12-15T08:59:50.476Z,1003.65
2022-12-15T09:00:50.797Z,1003.70
2022-12-15T09:01:53.023Z,1003.67
2022-12-15T09:02:51.381Z,1003.66
2022-12-15T09:03:53.589Z,1003.69
2022-12-15T09:04:51.940Z,1003.71
2022-12-15T09:05:52.395Z,1003.79
2022-12-15T09:06:54.416Z,1003.75
2022-12-15T09:07:52.714Z,1003.80
2022-12-15T09:08:54.908Z,1003.78
2022-12-15T09:09:55.096Z,1003.77
2022-12-15T09:10:54.654Z,1003.82
2022-12-15T09:11:55.847Z,1003.76
2022-12-15T09:12:54.267Z,1003.80
2022-12-15T09:13:54.612Z,1003.76
2022-12-15T09:14:54.948Z,1003.76
2022-12-15T09:16:12.476Z,1003.76
2022-12-15T09:16:58.373Z,1003.81
2022-12-15T09:17:55.852Z,1003.83
2022-12-15T09:18:58.069Z,1003.87
2022-12-15T09:19:56.460Z,1003.89
2022-12-15T09:20:56.808Z,1003.88
2022-12-15T09:21:59.956Z,1003.91
2022-12-15T09:22:57.381Z,1003.91
2022-12-15T09:23:59.548Z,1003.88
2022-12-15T09:24:57.839Z,1003.90
2022-12-15T09:25:58.187Z,1003.85
2022-12-15T09:27:00.339Z,1003.90
2022-12-15T09:28:00.526Z,1003.89
2022-12-15T09:29:01.665Z,1003.87
2022-12-15T09:30:00.267Z,1003.88
2022-12-15T09:30:59.703Z,1003.92
2022-12-15T09:32:00.819Z,1003.92
2022-12-15T09:33:01.185Z,1003.93
2022-12-15T09:34:02.465Z,1003.98
2022-12-15T09:35:02.606Z,1003.93
2022-12-15T09:36:01.016Z,1003.95
2022-12-15T09:37:01.252Z,1003.95
2022-12-15T09:38:02.299Z,1003.93
2022-12-15T09:39:03.696Z,1003.94
2022-12-15T09:40:02.876Z,1003.91
2022-12-15T09:41:04.208Z,1003.97
2022-12-15T09:42:04.396Z,1003.96
2022-12-15T09:43:32.984Z,1003.98
2022-12-15T09:44:04.155Z,1003.98
2022-12-15T09:45:03.447Z,1003.97
2022-12-15T09:46:03.844Z,1004.02
2022-12-15T09:47:05.001Z,1003.98
2022-12-15T09:48:04.267Z,1004.00
2022-12-15T09:49:04.602Z,1004.00
2022-12-15T09:50:06.809Z,1004.02
2022-12-15T09:51:06.998Z,1004.05
2022-12-15T09:52:11.116Z,1004.08
2022-12-15T09:53:23.126Z,1004.07
2022-12-15T09:54:07.041Z,1004.11
2022-12-15T09:55:08.287Z,1004.08
2022-12-15T09:56:06.553Z,1004.08
2022-12-15T09:57:06.902Z,1004.08
2022-12-15T09:58:10.944Z,1004.11
2022-12-15T09:59:08.437Z,1004.14
2022-12-15T10:00:07.844Z,1004.08
2022-12-15T10:01:08.183Z,1004.13
2022-12-15T10:02:10.488Z,1004.13
2022-12-15T10:03:10.688Z,1004.09
2022-12-15T10:04:10.846Z,1004.06
2022-12-15T10:05:10.950Z,1004.12
2022-12-15T10:06:21.549Z,1004.08
2022-12-15T10:07:12.142Z,1004.06
2022-12-15T10:08:12.159Z,1004.06
2022-12-15T10:09:12.342Z,1004.08
2022-12-15T10:10:10.751Z,1004.05
2022-12-15T10:11:11.090Z,1004.05
2022-12-15T10:12:11.427Z,1004.10
2022-12-15T10:13:11.776Z,1004.07
2022-12-15T10:14:13.954Z,1004.05
2022-12-15T10:15:12.367Z,1004.09
2022-12-15T10:16:12.753Z,1004.11
2022-12-15T10:17:14.885Z,1004.08
2022-12-15T10:18:13.319Z,1004.13
2022-12-15T10:19:15.470Z,1004.06
2022-12-15T10:20:15.634Z,1004.07
2022-12-15T10:21:15.803Z,1004.05
2022-12-15T10:22:15.992Z,1004.01
2022-12-15T10:23:14.842Z,1004.05
2022-12-15T10:24:31.614Z,1004.12
2022-12-15T10:26:16.827Z,1004.14
2022-12-15T10:27:15.855Z,1004.15
2022-12-15T10:28:18.045Z,1004.10
2022-12-15T10:29:16.472Z,1004.13
2022-12-15T10:30:16.813Z,1004.13
2022-12-15T10:31:17.034Z,1004.12
2022-12-15T10:32:17.338Z,1004.13
2022-12-15T10:33:17.704Z,1004.13
2022-12-15T10:34:19.933Z,1004.12
2022-12-15T10:35:18.200Z,1004.12
2022-12-15T10:36:18.535Z,1004.14
2022-12-15T10:37:18.878Z,1004.15
2022-12-15T10:38:21.054Z,1004.14
2022-12-15T10:39:19.496Z,1004.17
2022-12-15T10:40:19.741Z,1004.17
2022-12-15T10:41:21.894Z,1004.15
2022-12-15T10:42:20.298Z,1004.19
2022-12-15T10:43:22.491Z,1004.14
2022-12-15T10:44:25.946Z,1004.13
2022-12-15T10:45:22.115Z,1004.19
2022-12-15T10:46:21.487Z,1004.15
2022-12-15T10:47:23.619Z,1004.17
2022-12-15T10:48:22.028Z,1004.16
2022-12-15T10:49:24.204Z,1004.15
2022-12-15T10:50:24.792Z,1004.15
2022-12-15T10:51:22.909Z,1004.07
2022-12-15T10:52:23.270Z,1004.08
2022-12-15T10:53:23.600Z,1004.10
2022-12-15T10:54:25.768Z,1004.07
2022-12-15T10:55:24.182Z,1004.08
2022-12-15T10:56:32.847Z,1004.06
2022-12-15T10:57:27.549Z,1004.09
2022-12-15T10:58:24.966Z,1004.07
2022-12-15T10:59:25.196Z,1004.07
2022-12-15T11:00:25.426Z,1004.06
2022-12-15T11:01:25.936Z,1004.11
2022-12-15T11:02:28.034Z,1004.07
2022-12-15T11:03:26.589Z,1004.07
2022-12-15T11:04:28.591Z,1004.09
2022-12-15T11:05:26.912Z,1004.08
2022-12-15T11:06:27.129Z,1004.08
2022-12-15T11:07:30.259Z,1004.05
2022-12-15T11:08:28.738Z,1004.03
2022-12-15T11:09:29.147Z,1004.08
2022-12-15T11:10:31.029Z,1004.08
2022-12-15T11:11:29.472Z,1004.10
2022-12-15T11:12:30.848Z,1004.05
2022-12-15T11:13:34.880Z,1004.12
2022-12-15T11:14:32.393Z,1004.09
2022-12-15T11:15:29.786Z,1004.09
2022-12-15T11:16:29.979Z,1004.08
2022-12-15T11:17:30.209Z,1004.05
2022-12-15T11:18:30.440Z,1004.05
2022-12-15T11:19:32.631Z,1004.07
2022-12-15T11:20:31.013Z,1004.08
2022-12-15T11:21:31.199Z,1004.05
2022-12-15T11:22:34.892Z,1004.06
2022-12-15T11:23:32.118Z,1004.12
2022-12-15T11:24:33.095Z,1004.11
2022-12-15T11:25:35.242Z,1004.09
2022-12-15T11:26:33.649Z,1004.08
2022-12-15T11:27:34.844Z,1004.07
2022-12-15T11:28:34.224Z,1004.05
2022-12-15T11:29:35.450Z,1004.10
2022-12-15T11:30:34.557Z,1004.11
2022-12-15T11:31:34.968Z,1004.09
2022-12-15T11:32:35.334Z,1004.16
2022-12-15T11:33:38.036Z,1004.16
2022-12-15T11:34:36.754Z,1004.18
2022-12-15T11:35:35.162Z,1004.20
2022-12-15T11:36:35.512Z,1004.23
2022-12-15T11:37:36.899Z,1004.26
2022-12-15T11:38:36.156Z,1004.22
2022-12-15T11:39:38.269Z,1004.20
2022-12-15T11:40:37.487Z,1004.17
2022-12-15T11:41:37.012Z,1004.20
2022-12-15T11:42:37.250Z,1004.20
2022-12-15T11:43:37.517Z,1004.18
2022-12-15T11:44:37.725Z,1004.16
2022-12-15T11:45:39.960Z,1004.24
2022-12-15T11:46:38.271Z,1004.21
2022-12-15T11:47:38.506Z,1004.24
2022-12-15T11:48:38.775Z,1004.27
2022-12-15T11:49:41.344Z,1004.26
2022-12-15T11:50:41.179Z,1004.26
2022-12-15T11:51:39.581Z,1004.24
2022-12-15T11:52:39.912Z,1004.25
2022-12-15T11:53:40.259Z,1004.27
2022-12-15T11:54:40.609Z,1004.25
2022-12-15T11:55:42.772Z,1004.26
2022-12-15T11:56:42.425Z,1004.31
2022-12-15T11:57:43.078Z,1004.29
2022-12-15T11:58:43.234Z,1004.31
2022-12-15T11:59:43.928Z,1004.36
2022-12-15T12:00:44.119Z,1004.36
2022-12-15T12:01:52.612Z,1004.33
2022-12-15T12:02:45.592Z,1004.39
2022-12-15T12:03:43.279Z,1004.39
2022-12-15T12:04:45.517Z,1004.41
2022-12-15T12:05:46.694Z,1004.43
2022-12-15T12:06:44.239Z,1004.45
2022-12-15T12:07:46.421Z,1004.44
2022-12-15T12:08:46.665Z,1004.44
2022-12-15T12:09:46.810Z,1004.44